Time;durP1;ratioP1;P1;durP2;ratioP2;P2;SDS_P1;SDS_P2;PMS_P1;PMS_P2;Temp;Humidity;BMP_temperature;BMP_pressure;BME280_temperature;BME280_humidity;BME280_pressure;Samples;Min_cycle;Max_cycle;Signal;HPM_P1;HPM_P2
2023/05/09 00:00:36;;;;;;;3.53;3.23;;;11.40;78.10;;;;;;5023049;28;20994;-67
2023/05/09 00:03:04;;;;;;;11.07;3.40;;;11.40;78.60;;;;;;5026799;28;20952;-66
2023/05/09 00:05:30;;;;;;;4.03;3.63;;;11.40;79.20;;;;;;5025900;28;20286;-66
2023/05/09 00:07:56;;;;;;;5.90;4.47;;;11.40;80.00;;;;;;5027418;28;20201;-67
2023/05/09 00:10:21;;;;;;;5.20;3.70;;;11.30;80.70;;;;;;5027856;28;20599;-66
2023/05/09 00:12:48;;;;;;;4.90;3.30;;;11.30;80.10;;;;;;5026139;28;20552;-67
2023/05/09 00:15:14;;;;;;;4.37;3.80;;;11.30;80.60;;;;;;5028364;28;20194;-66
2023/05/09 00:17:39;;;;;;;3.80;3.50;;;11.30;81.10;;;;;;5028177;28;20199;-66
2023/05/09 00:20:10;;;;;;;4.77;4.10;;;11.20;81.70;;;;;;5027932;28;20878;-65
2023/05/09 00:22:35;;;;;;;4.53;4.13;;;11.20;81.80;;;;;;5025322;28;20346;-67
2023/05/09 00:25:01;;;;;;;5.63;3.83;;;11.10;82.70;;;;;;5027402;28;20838;-64
2023/05/09 00:27:29;;;;;;;4.50;3.50;;;11.10;83.20;;;;;;5027142;28;20271;-65
2023/05/09 00:29:55;;;;;;;6.03;4.07;;;11.00;83.50;;;;;;5027132;28;20224;-65
2023/05/09 00:32:20;;;;;;;4.97;3.87;;;11.10;83.20;;;;;;5027348;28;20307;-65
2023/05/09 00:34:46;;;;;;;4.27;3.33;;;11.00;83.60;;;;;;5026664;28;20252;-65
2023/05/09 00:37:11;;;;;;;4.27;3.77;;;11.10;83.70;;;;;;5026427;28;20717;-65
2023/05/09 00:39:37;;;;;;;3.63;3.13;;;11.10;84.10;;;;;;5027725;28;20203;-65
2023/05/09 00:42:02;;;;;;;4.40;4.00;;;11.00;83.90;;;;;;5027790;28;20216;-65
2023/05/09 00:44:28;;;;;;;7.30;4.17;;;11.10;84.70;;;;;;5027068;28;20268;-66
2023/05/09 00:46:53;;;;;;;5.13;3.27;;;11.00;84.30;;;;;;5027074;28;20204;-65
2023/05/09 00:49:19;;;;;;;3.73;3.13;;;11.00;84.40;;;;;;5025226;28;20204;-65
2023/05/09 00:51:46;;;;;;;4.83;3.60;;;11.10;84.80;;;;;;5026994;28;20204;-65
2023/05/09 00:54:12;;;;;;;3.53;3.23;;;11.10;84.40;;;;;;5026341;28;20203;-65
2023/05/09 00:56:37;;;;;;;5.77;3.70;;;11.10;84.20;;;;;;5029508;28;20206;-65
2023/05/09 00:59:03;;;;;;;8.47;3.40;;;11.00;84.80;;;;;;5027307;28;20283;-65
2023/05/09 01:01:28;;;;;;;3.93;3.43;;;10.90;84.10;;;;;;5020690;28;20202;-67
2023/05/09 01:03:54;;;;;;;4.20;3.37;;;10.90;84.60;;;;;;5027217;28;20240;-64
2023/05/09 01:06:31;;;;;;;3.80;3.30;;;11.00;84.40;;;;;;5027550;28;20284;-65
2023/05/09 01:09:07;;;;;;;3.80;3.23;;;11.00;84.80;;;;;;5027360;28;20212;-64
2023/05/09 01:11:49;;;;;;;3.27;3.07;;;11.00;84.30;;;;;;5021934;28;20202;-64
2023/05/09 01:14:29;;;;;;;3.87;3.57;;;11.00;83.80;;;;;;5031701;28;20501;-64
2023/05/09 01:17:01;;;;;;;5.70;3.30;;;10.90;83.90;;;;;;5021027;28;20239;-64
2023/05/09 01:20:01;;;;;;;3.43;3.10;;;10.90;84.50;;;;;;5026986;28;20342;-67
2023/05/09 01:22:34;;;;;;;5.23;3.50;;;10.80;84.50;;;;;;5026306;28;20220;-66
2023/05/09 01:25:53;;;;;;;4.17;3.17;;;10.90;84.80;;;;;;5019760;28;20248;-66
2023/05/09 01:28:48;;;;;;;4.83;2.97;;;10.80;84.10;;;;;;4999382;28;20256;-66
2023/05/09 01:31:14;;;;;;;4.23;3.10;;;10.90;83.60;;;;;;5021666;28;20268;-65
2023/05/09 01:33:42;;;;;;;3.23;2.93;;;10.90;83.50;;;;;;5026345;28;20214;-65
2023/05/09 01:36:12;;;;;;;5.67;3.87;;;10.80;83.80;;;;;;5026340;28;23365;-66
2023/05/09 01:38:41;;;;;;;3.20;2.83;;;10.80;83.90;;;;;;5026232;28;20685;-66
2023/05/09 01:41:08;;;;;;;6.60;3.47;;;10.80;83.50;;;;;;5029498;28;20208;-66
2023/05/09 01:43:35;;;;;;;5.17;3.33;;;10.80;83.60;;;;;;5027026;28;20328;-66
2023/05/09 01:46:03;;;;;;;3.87;3.00;;;10.80;83.80;;;;;;5035262;28;20206;-66
2023/05/09 01:48:30;;;;;;;4.73;2.83;;;10.80;84.20;;;;;;5036631;28;20204;-66
2023/05/09 01:50:57;;;;;;;3.33;3.10;;;10.80;84.00;;;;;;5034250;28;20214;-66
2023/05/09 01:53:24;;;;;;;3.67;3.37;;;10.80;83.80;;;;;;5036236;28;20327;-66
2023/05/09 01:55:51;;;;;;;3.17;2.90;;;10.80;83.90;;;;;;5033949;28;20231;-67
2023/05/09 01:58:19;;;;;;;3.03;2.83;;;10.80;83.90;;;;;;5029996;28;20343;-67
2023/05/09 02:00:46;;;;;;;3.57;3.27;;;10.60;83.90;;;;;;5034060;28;20200;-65
2023/05/09 02:03:12;;;;;;;5.20;3.53;;;10.60;84.20;;;;;;5026962;28;20267;-64
2023/05/09 02:05:38;;;;;;;4.00;2.90;;;10.70;84.80;;;;;;5036174;28;20562;-65
2023/05/09 02:08:04;;;;;;;3.40;3.10;;;10.70;83.90;;;;;;5036064;28;20686;-64
2023/05/09 02:10:30;;;;;;;3.23;2.70;;;10.60;83.60;;;;;;5036439;28;20242;-64
2023/05/09 02:12:56;;;;;;;3.67;3.00;;;10.70;83.00;;;;;;5036483;28;20212;-64
2023/05/09 02:15:22;;;;;;;5.30;2.93;;;10.60;82.50;;;;;;5040403;28;20210;-64
2023/05/09 02:17:47;;;;;;;5.17;2.83;;;10.60;83.10;;;;;;5039927;28;20650;-64
2023/05/09 02:20:13;;;;;;;4.20;2.90;;;10.50;82.20;;;;;;5039755;28;20195;-65
2023/05/09 02:22:42;;;;;;;2.70;2.50;;;10.50;82.00;;;;;;5037646;28;20216;-65
2023/05/09 02:25:10;;;;;;;3.50;2.83;;;10.50;82.10;;;;;;5040142;28;20208;-64
2023/05/09 02:27:38;;;;;;;3.07;2.87;;;10.50;82.70;;;;;;5039847;28;20642;-65
2023/05/09 02:30:07;;;;;;;4.17;3.00;;;10.50;81.70;;;;;;5039648;28;20280;-65
2023/05/09 02:32:35;;;;;;;2.73;2.40;;;10.50;82.00;;;;;;5024962;28;20227;-65
2023/05/09 02:35:02;;;;;;;3.00;2.50;;;10.40;81.50;;;;;;5040770;28;20212;-65
2023/05/09 02:37:29;;;;;;;13.30;2.60;;;10.40;82.00;;;;;;5039444;28;20212;-65
2023/05/09 02:39:55;;;;;;;2.80;2.60;;;10.40;82.60;;;;;;5039905;28;20300;-65
2023/05/09 02:42:24;;;;;;;3.73;2.90;;;10.50;81.40;;;;;;5039505;28;20611;-65
2023/05/09 02:44:52;;;;;;;3.27;2.83;;;10.60;81.00;;;;;;5039525;28;20218;-65
2023/05/09 02:47:18;;;;;;;4.60;2.40;;;10.50;80.30;;;;;;5039572;28;20199;-65
2023/05/09 02:49:43;;;;;;;2.40;2.20;;;10.50;80.20;;;;;;5039520;28;20207;-64
2023/05/09 02:52:10;;;;;;;3.37;2.87;;;10.50;80.00;;;;;;5039600;28;20207;-65
2023/05/09 02:54:36;;;;;;;3.10;2.67;;;10.50;80.20;;;;;;5038943;28;20322;-65
2023/05/09 02:57:01;;;;;;;3.97;2.90;;;10.40;79.40;;;;;;5036637;28;20314;-66
2023/05/09 02:59:27;;;;;;;3.80;2.30;;;10.40;79.50;;;;;;5039559;28;20207;-65
2023/05/09 03:01:52;;;;;;;2.97;2.77;;;10.40;79.80;;;;;;5038896;28;20211;-66
2023/05/09 03:04:18;;;;;;;3.37;3.07;;;10.40;80.30;;;;;;5039285;28;20195;-66
2023/05/09 03:06:44;;;;;;;3.70;2.57;;;10.30;79.90;;;;;;5039403;28;20269;-65
2023/05/09 03:09:10;;;;;;;3.70;2.57;;;10.40;79.60;;;;;;5037292;28;20201;-72
2023/05/09 03:11:35;;;;;;;2.70;2.50;;;10.40;81.10;;;;;;5034591;28;20195;-64
2023/05/09 03:14:02;;;;;;;3.60;2.40;;;10.20;80.30;;;;;;5039112;28;20213;-65
2023/05/09 03:16:27;;;;;;;3.50;3.00;;;10.10;80.80;;;;;;5038673;28;20211;-65
2023/05/09 03:18:53;;;;;;;3.13;2.80;;;10.20;80.60;;;;;;5038886;28;20205;-63
2023/05/09 03:21:18;;;;;;;3.97;2.90;;;10.10;80.40;;;;;;5037233;28;20230;-64
2023/05/09 03:23:44;;;;;;;3.80;2.47;;;10.10;80.70;;;;;;5035306;28;20750;-63
2023/05/09 03:26:09;;;;;;;3.50;3.10;;;10.20;80.90;;;;;;5038961;28;20195;-63
2023/05/09 03:28:35;;;;;;;6.80;4.80;;;10.20;80.70;;;;;;5038403;28;20292;-64
2023/05/09 03:31:00;;;;;;;3.57;2.50;;;10.10;81.00;;;;;;5038744;28;20191;-64
2023/05/09 03:33:26;;;;;;;2.67;2.47;;;10.00;81.80;;;;;;5038901;28;20698;-64
2023/05/09 03:35:51;;;;;;;3.17;2.87;;;10.00;81.90;;;;;;5036723;28;20214;-64
2023/05/09 03:38:17;;;;;;;3.03;2.73;;;10.10;80.70;;;;;;5038521;28;20215;-64
2023/05/09 03:40:42;;;;;;;7.37;3.47;;;10.20;80.70;;;;;;5038601;28;20606;-64
2023/05/09 03:43:08;;;;;;;2.77;2.30;;;10.20;81.10;;;;;;5037448;28;20217;-64
2023/05/09 03:45:34;;;;;;;3.80;3.00;;;10.10;81.40;;;;;;5029088;28;20188;-64
2023/05/09 03:48:01;;;;;;;3.37;2.87;;;10.00;81.30;;;;;;5037244;28;20197;-64
2023/05/09 03:50:28;;;;;;;3.30;3.00;;;10.10;81.60;;;;;;5037438;28;20196;-65
2023/05/09 03:52:54;;;;;;;3.97;2.57;;;10.10;81.40;;;;;;5037961;28;20856;-65
2023/05/09 03:55:22;;;;;;;2.57;2.30;;;10.10;81.60;;;;;;5037988;28;20190;-66
2023/05/09 03:57:48;;;;;;;4.43;2.93;;;10.00;81.80;;;;;;5038190;28;20208;-65
2023/05/09 04:00:14;;;;;;;2.87;2.57;;;10.00;82.00;;;;;;5035950;28;20258;-65
2023/05/09 04:02:40;;;;;;;2.70;2.50;;;10.00;82.60;;;;;;5028759;28;20231;-65
2023/05/09 04:05:06;;;;;;;4.27;2.93;;;10.10;82.70;;;;;;5037954;28;20195;-65
2023/05/09 04:07:32;;;;;;;4.40;3.23;;;10.00;82.70;;;;;;5037988;28;21077;-65
2023/05/09 04:09:57;;;;;;;3.30;2.97;;;10.10;83.20;;;;;;5038009;28;20202;-65
2023/05/09 04:12:23;;;;;;;3.30;3.00;;;10.10;83.40;;;;;;5037443;28;20257;-66
2023/05/09 04:14:48;;;;;;;2.97;2.77;;;10.10;83.10;;;;;;5036058;28;20209;-65
2023/05/09 04:17:14;;;;;;;3.57;2.97;;;10.10;83.40;;;;;;5038171;28;20199;-65
2023/05/09 04:19:39;;;;;;;3.20;2.83;;;10.00;83.70;;;;;;5037656;28;20198;-65
2023/05/09 04:22:05;;;;;;;3.80;2.63;;;10.00;83.80;;;;;;5036993;28;20314;-65
2023/05/09 04:24:30;;;;;;;3.33;2.90;;;10.00;83.90;;;;;;5037474;28;20203;-65
2023/05/09 04:26:56;;;;;;;3.50;3.20;;;10.10;84.40;;;;;;5037742;28;20202;-65
2023/05/09 04:29:22;;;;;;;3.90;2.90;;;10.00;84.70;;;;;;5035679;28;20327;-65
2023/05/09 04:31:47;;;;;;;4.33;2.47;;;10.00;84.90;;;;;;5037411;28;20206;-65
2023/05/09 04:34:13;;;;;;;3.63;3.20;;;9.90;86.30;;;;;;5026125;28;20224;-67
2023/05/09 04:36:38;;;;;;;4.30;2.70;;;9.90;86.20;;;;;;5037009;28;20214;-65
2023/05/09 04:39:07;;;;;;;3.50;3.20;;;9.90;87.30;;;;;;5036848;28;20265;-65
2023/05/09 04:41:32;;;;;;;4.67;3.57;;;10.00;85.00;;;;;;5035063;28;20908;-65
2023/05/09 04:43:58;;;;;;;4.03;3.17;;;9.90;86.50;;;;;;5037203;28;20220;-65
2023/05/09 04:46:23;;;;;;;3.83;3.30;;;9.80;86.60;;;;;;5036866;28;20200;-65
2023/05/09 04:48:49;;;;;;;3.50;3.20;;;9.90;87.20;;;;;;5037270;28;20211;-65
2023/05/09 04:51:14;;;;;;;5.40;3.20;;;9.90;87.50;;;;;;5027715;28;20188;-66
2023/05/09 04:53:40;;;;;;;5.93;3.67;;;10.00;85.80;;;;;;5034962;28;20593;-65
2023/05/09 04:56:05;;;;;;;4.53;3.70;;;9.90;87.20;;;;;;5037407;28;20228;-64
2023/05/09 04:58:33;;;;;;;4.27;3.30;;;9.90;87.60;;;;;;5036234;28;20208;-63
2023/05/09 05:00:58;;;;;;;3.67;2.80;;;10.00;86.40;;;;;;5037138;28;20207;-64
2023/05/09 05:03:24;;;;;;;4.20;3.27;;;10.00;86.60;;;;;;5034686;28;20642;-64
2023/05/09 05:05:49;;;;;;;3.83;2.87;;;10.00;86.20;;;;;;5034447;28;20204;-64
2023/05/09 05:08:15;;;;;;;3.60;3.30;;;10.00;86.40;;;;;;5027864;28;20667;-64
2023/05/09 05:10:40;;;;;;;4.50;3.23;;;10.00;86.90;;;;;;5036898;28;20195;-64
2023/05/09 05:13:06;;;;;;;4.97;3.20;;;10.10;87.30;;;;;;5036538;28;20205;-64
2023/05/09 05:15:31;;;;;;;5.13;3.33;;;10.10;86.50;;;;;;5036603;28;20621;-64
2023/05/09 05:17:57;;;;;;;8.33;3.33;;;10.10;87.20;;;;;;5034105;28;20271;-65
2023/05/09 05:20:22;;;;;;;3.60;3.10;;;10.20;86.80;;;;;;5020765;28;20203;-65
2023/05/09 05:22:48;;;;;;;3.70;3.40;;;10.30;86.60;;;;;;5026594;28;20216;-66
2023/05/09 05:25:13;;;;;;;4.27;3.53;;;10.30;86.60;;;;;;5025977;28;20292;-65
2023/05/09 05:27:39;;;;;;;6.30;3.57;;;10.40;85.90;;;;;;5027016;28;20719;-65
2023/05/09 05:30:06;;;;;;;5.53;3.30;;;10.40;85.80;;;;;;5028848;28;20629;-65
2023/05/09 05:32:31;;;;;;;6.53;3.50;;;10.50;86.20;;;;;;5026193;28;20203;-64
2023/05/09 05:34:57;;;;;;;3.53;3.00;;;10.60;86.50;;;;;;5024221;28;20525;-65
2023/05/09 05:37:22;;;;;;;4.77;3.13;;;10.60;84.90;;;;;;5026032;28;20203;-65
2023/05/09 05:39:50;;;;;;;6.70;3.70;;;10.60;85.40;;;;;;5025555;28;20202;-65
2023/05/09 05:42:16;;;;;;;5.03;3.33;;;10.80;85.80;;;;;;5026188;28;20219;-65
2023/05/09 05:44:41;;;;;;;3.70;3.00;;;10.80;85.40;;;;;;5026159;28;20260;-65
2023/05/09 05:47:07;;;;;;;3.87;3.47;;;10.90;84.30;;;;;;5028021;28;20321;-65
2023/05/09 05:49:32;;;;;;;5.87;3.47;;;10.90;84.50;;;;;;5030811;28;20620;-64
2023/05/09 05:51:58;;;;;;;3.77;3.27;;;10.90;83.60;;;;;;5023997;28;20204;-64
2023/05/09 05:54:23;;;;;;;7.27;3.70;;;11.00;82.50;;;;;;5020244;28;20251;-64
2023/05/09 05:56:49;;;;;;;7.47;3.20;;;11.10;83.20;;;;;;5021110;28;21022;-64
2023/05/09 05:59:15;;;;;;;4.43;2.80;;;11.20;82.50;;;;;;5021166;28;20245;-65
2023/05/09 06:01:40;;;;;;;3.00;2.60;;;11.30;81.80;;;;;;5020980;28;20559;-64
2023/05/09 06:04:06;;;;;;;4.80;3.00;;;11.30;81.50;;;;;;5020672;28;20337;-64
2023/05/09 06:06:31;;;;;;;9.53;3.27;;;11.40;81.30;;;;;;5021569;28;20205;-63
2023/05/09 06:08:56;;;;;;;3.37;2.93;;;11.30;80.60;;;;;;5020311;28;20266;-64
2023/05/09 06:11:22;;;;;;;4.83;2.53;;;11.40;79.90;;;;;;5029319;28;20207;-65
2023/05/09 06:13:48;;;;;;;3.40;3.03;;;11.50;80.00;;;;;;5029003;28;20687;-65
2023/05/09 06:16:13;;;;;;;2.77;2.57;;;11.60;79.80;;;;;;5030837;28;20416;-66
2023/05/09 06:18:39;;;;;;;3.93;2.73;;;11.60;78.80;;;;;;5027931;28;20202;-65
2023/05/09 06:21:07;;;;;;;4.40;3.33;;;11.70;79.10;;;;;;5026601;28;20573;-65
2023/05/09 06:23:35;;;;;;;4.20;3.37;;;11.80;79.50;;;;;;5018983;28;20215;-65
2023/05/09 06:26:01;;;;;;;5.83;2.70;;;11.90;78.90;;;;;;5021661;28;20278;-65
2023/05/09 06:28:27;;;;;;;5.27;3.00;;;11.90;78.80;;;;;;5022853;28;20223;-63
2023/05/09 06:30:52;;;;;;;3.60;2.87;;;12.00;78.90;;;;;;5019915;28;20216;-64
2023/05/09 06:33:18;;;;;;;4.27;2.50;;;12.10;78.50;;;;;;5023915;28;20256;-62
2023/05/09 06:35:43;;;;;;;4.63;2.87;;;12.20;78.00;;;;;;5029586;28;20206;-64
2023/05/09 06:38:09;;;;;;;3.77;2.70;;;12.10;77.90;;;;;;5031522;28;20200;-64
2023/05/09 06:40:34;;;;;;;3.90;2.23;;;12.10;78.30;;;;;;5029628;28;20193;-64
2023/05/09 06:43:00;;;;;;;3.03;2.70;;;12.20;78.00;;;;;;5029931;28;20216;-63
2023/05/09 06:45:26;;;;;;;4.47;2.80;;;12.30;77.00;;;;;;5027753;28;20201;-64
2023/05/09 06:47:51;;;;;;;3.87;2.93;;;12.40;76.80;;;;;;5030468;28;20200;-61
2023/05/09 06:50:17;;;;;;;5.00;2.80;;;12.40;77.20;;;;;;5025879;28;20198;-63
2023/05/09 06:52:42;;;;;;;3.07;2.57;;;12.50;76.70;;;;;;5029169;28;20835;-71
2023/05/09 06:55:08;;;;;;;3.13;2.37;;;12.50;76.10;;;;;;5029781;28;20237;-71
2023/05/09 06:57:34;;;;;;;3.43;2.53;;;12.60;76.30;;;;;;5028445;28;20222;-71
2023/05/09 07:00:00;;;;;;;4.37;2.73;;;12.70;76.20;;;;;;5028874;28;20669;-67
2023/05/09 07:02:25;;;;;;;4.67;3.13;;;12.80;76.20;;;;;;5026240;28;20228;-63
2023/05/09 07:04:51;;;;;;;3.90;2.90;;;12.90;75.00;;;;;;5029389;28;20277;-62
2023/05/09 07:07:16;;;;;;;2.73;2.43;;;13.00;75.00;;;;;;5029114;28;20184;-63
2023/05/09 07:09:42;;;;;;;6.57;2.90;;;13.00;74.50;;;;;;5029124;28;20191;-63
2023/05/09 07:12:07;;;;;;;2.90;2.70;;;12.90;74.50;;;;;;5026212;28;20195;-61
2023/05/09 07:14:33;;;;;;;3.57;3.23;;;13.00;75.20;;;;;;5025642;28;20202;-65
2023/05/09 07:16:58;;;;;;;3.43;2.83;;;13.00;74.80;;;;;;5028129;28;20194;-65
2023/05/09 07:19:24;;;;;;;4.03;2.80;;;13.10;75.00;;;;;;5028897;28;20192;-60
2023/05/09 07:21:49;;;;;;;3.13;2.57;;;13.10;74.90;;;;;;5027220;28;20238;-60
2023/05/09 07:24:15;;;;;;;3.57;3.20;;;13.20;75.70;;;;;;5027059;28;20215;-61
2023/05/09 07:26:40;;;;;;;4.83;3.33;;;13.40;74.40;;;;;;5029451;28;20286;-62
2023/05/09 07:29:06;;;;;;;3.87;3.20;;;13.50;73.80;;;;;;5033161;28;20775;-64
2023/05/09 07:31:31;;;;;;;6.93;3.23;;;13.60;73.60;;;;;;5028093;28;21105;-64
2023/05/09 07:33:57;;;;;;;3.60;2.83;;;13.70;73.60;;;;;;5029172;28;20214;-64
2023/05/09 07:36:23;;;;;;;4.33;2.87;;;13.70;71.60;;;;;;5028578;28;20209;-63
2023/05/09 07:38:51;;;;;;;3.27;2.97;;;13.80;71.60;;;;;;5027775;28;20206;-63
2023/05/09 07:41:17;;;;;;;3.47;2.90;;;13.60;72.00;;;;;;5027591;28;20756;-64
2023/05/09 07:43:42;;;;;;;3.13;2.53;;;13.60;71.40;;;;;;5028170;28;20277;-64
2023/05/09 07:46:08;;;;;;;3.27;2.33;;;13.60;70.20;;;;;;5028268;28;20254;-64
2023/05/09 07:48:33;;;;;;;4.27;3.10;;;13.50;69.50;;;;;;5026609;28;20347;-64
2023/05/09 07:50:59;;;;;;;4.53;3.07;;;13.60;69.60;;;;;;5019094;28;20694;-64
2023/05/09 07:53:24;;;;;;;2.93;2.37;;;13.60;69.50;;;;;;5028881;28;20482;-64
2023/05/09 07:55:49;;;;;;;4.17;2.97;;;13.70;69.70;;;;;;5028298;28;20551;-65
2023/05/09 07:58:16;;;;;;;3.43;2.53;;;13.60;68.60;;;;;;5026425;28;20202;-64
2023/05/09 08:00:41;;;;;;;3.97;2.53;;;13.60;68.60;;;;;;5027589;28;20203;-64
2023/05/09 08:03:07;;;;;;;3.30;2.70;;;13.70;71.20;;;;;;5028255;28;20722;-64
2023/05/09 08:05:33;;;;;;;3.27;2.97;;;13.90;67.80;;;;;;5023924;28;20806;-65
2023/05/09 08:07:58;;;;;;;3.73;2.53;;;13.90;69.10;;;;;;5027161;28;20195;-65
2023/05/09 08:10:25;;;;;;;6.33;2.37;;;14.00;66.50;;;;;;5034132;28;20507;-64
2023/05/09 08:12:51;;;;;;;3.43;3.07;;;14.00;65.70;;;;;;5025605;28;20352;-65
2023/05/09 08:15:17;;;;;;;3.33;3.03;;;14.10;65.70;;;;;;5027624;28;20689;-65
2023/05/09 08:17:42;;;;;;;4.33;2.40;;;14.20;65.50;;;;;;5027096;28;20218;-64
2023/05/09 08:20:08;;;;;;;2.80;2.23;;;14.30;65.50;;;;;;5026845;28;20693;-64
2023/05/09 08:22:34;;;;;;;3.17;2.87;;;14.40;64.70;;;;;;5027920;28;20215;-64
2023/05/09 08:24:59;;;;;;;3.17;2.60;;;14.40;61.70;;;;;;5028598;28;20891;-64
2023/05/09 08:27:25;;;;;;;3.53;2.30;;;14.30;63.30;;;;;;5028145;28;20270;-66
2023/05/09 08:29:50;;;;;;;5.17;2.87;;;14.20;62.60;;;;;;5027332;28;20229;-65
2023/05/09 08:32:16;;;;;;;3.63;3.23;;;14.40;65.60;;;;;;5025756;28;20222;-64
2023/05/09 08:34:41;;;;;;;2.83;2.20;;;14.50;62.70;;;;;;5027104;28;20517;-64
2023/05/09 08:37:07;;;;;;;4.93;2.70;;;14.50;61.20;;;;;;5027192;28;20213;-64
2023/05/09 08:39:34;;;;;;;3.27;2.90;;;14.30;60.90;;;;;;5026697;28;20629;-64
2023/05/09 08:42:00;;;;;;;3.57;3.13;;;14.50;61.50;;;;;;5026988;28;20684;-64
2023/05/09 08:44:28;;;;;;;2.83;2.53;;;14.60;61.80;;;;;;5027406;28;20257;-64
2023/05/09 08:46:57;;;;;;;2.87;2.57;;;14.70;61.30;;;;;;5018605;28;20211;-64
2023/05/09 08:49:23;;;;;;;4.43;2.60;;;15.00;61.30;;;;;;5027360;28;20782;-65
2023/05/09 08:51:49;;;;;;;4.03;2.40;;;15.00;60.30;;;;;;5027569;28;20994;-64
2023/05/09 08:54:15;;;;;;;2.90;2.40;;;15.00;58.80;;;;;;5027502;28;20524;-64
2023/05/09 08:56:41;;;;;;;3.00;2.70;;;15.20;59.70;;;;;;5025448;28;20198;-64
2023/05/09 08:59:07;;;;;;;2.90;2.30;;;15.20;59.20;;;;;;5026755;28;20202;-64
2023/05/09 09:01:34;;;;;;;2.30;2.10;;;15.20;58.30;;;;;;5026679;28;20269;-65
2023/05/09 09:04:00;;;;;;;5.67;2.30;;;15.30;58.60;;;;;;5030977;28;20223;-64
2023/05/09 09:06:27;;;;;;;2.83;2.50;;;15.40;58.80;;;;;;5034858;28;20277;-64
2023/05/09 09:08:55;;;;;;;5.43;2.67;;;15.30;58.50;;;;;;5035281;28;20207;-64
2023/05/09 09:11:21;;;;;;;5.03;2.53;;;15.30;58.70;;;;;;5036687;28;20752;-65
2023/05/09 09:13:50;;;;;;;2.40;2.20;;;15.30;58.20;;;;;;5027976;28;20205;-64
2023/05/09 09:16:21;;;;;;;3.13;2.13;;;15.40;58.00;;;;;;5034077;28;20294;-65
2023/05/09 09:18:49;;;;;;;3.23;2.60;;;15.50;58.10;;;;;;5036436;28;20205;-65
2023/05/09 09:21:16;;;;;;;3.17;2.50;;;15.50;58.40;;;;;;5021952;28;20286;-65
2023/05/09 09:23:43;;;;;;;3.77;3.20;;;15.80;59.10;;;;;;5025353;28;20273;-65
2023/05/09 09:26:09;;;;;;;5.70;2.60;;;15.90;58.70;;;;;;5027356;28;20210;-65
2023/05/09 09:28:34;;;;;;;2.90;2.67;;;16.10;58.00;;;;;;5026585;28;20211;-65
2023/05/09 09:31:00;;;;;;;3.10;2.80;;;16.20;57.70;;;;;;5027222;28;20210;-64
2023/05/09 09:33:27;;;;;;;3.80;2.57;;;16.10;59.40;;;;;;5027039;28;20214;-66
2023/05/09 09:35:54;;;;;;;3.50;3.20;;;16.30;59.40;;;;;;5025987;28;20215;-65
2023/05/09 09:38:21;;;;;;;3.10;2.90;;;16.40;58.90;;;;;;5026064;28;20205;-65
2023/05/09 09:40:57;;;;;;;4.37;2.33;;;16.30;58.70;;;;;;5024086;28;20210;-62
2023/05/09 09:43:30;;;;;;;5.23;2.50;;;16.30;59.20;;;;;;5017277;28;20234;-61
2023/05/09 09:45:59;;;;;;;9.97;2.77;;;16.50;59.30;;;;;;5022658;28;21016;-63
2023/05/09 09:48:26;;;;;;;4.57;2.60;;;16.70;58.00;;;;;;5017641;28;20573;-61
2023/05/09 09:50:58;;;;;;;3.00;2.43;;;16.70;57.80;;;;;;5019743;28;20674;-63
2023/05/09 09:53:28;;;;;;;5.20;2.50;;;16.70;55.60;;;;;;5024576;28;20610;-62
2023/05/09 09:55:54;;;;;;;3.77;2.93;;;16.70;55.10;;;;;;5024864;28;20214;-65
2023/05/09 09:58:25;;;;;;;2.47;2.27;;;16.70;55.10;;;;;;5023608;28;20586;-64
2023/05/09 10:01:15;;;;;;;2.47;2.20;;;16.80;55.30;;;;;;5025515;28;20293;-62
2023/05/09 10:03:43;;;;;;;3.83;3.10;;;16.80;56.90;;;;;;5016412;28;20215;-62
2023/05/09 10:06:14;;;;;;;3.90;2.23;;;16.90;54.30;;;;;;5016531;28;20195;-68
2023/05/09 10:08:41;;;;;;;2.90;2.23;;;17.00;57.50;;;;;;5028657;28;20197;-66
2023/05/09 10:11:08;;;;;;;2.43;2.23;;;17.10;55.90;;;;;;5021892;28;20725;-66
2023/05/09 10:13:35;;;;;;;5.30;2.40;;;17.20;55.00;;;;;;5026355;28;20191;-64
2023/05/09 10:16:02;;;;;;;3.93;2.50;;;17.30;55.00;;;;;;5026917;28;20201;-65
2023/05/09 10:18:32;;;;;;;2.50;2.30;;;17.30;52.50;;;;;;5024956;28;20201;-64
2023/05/09 10:21:00;;;;;;;11.63;4.50;;;17.30;52.80;;;;;;5020873;28;20737;-65
2023/05/09 10:23:29;;;;;;;2.33;2.13;;;17.40;51.60;;;;;;5027386;28;20520;-65
2023/05/09 10:26:16;;;;;;;4.63;3.07;;;17.30;50.30;;;;;;5026282;28;20647;-64
2023/05/09 10:28:45;;;;;;;2.40;2.20;;;17.40;51.50;;;;;;5022863;28;20306;-65
2023/05/09 10:31:25;;;;;;;4.00;2.60;;;17.50;50.70;;;;;;5022834;28;20204;-66
2023/05/09 10:33:52;;;;;;;3.00;2.47;;;17.50;52.20;;;;;;5027121;28;20295;-64
2023/05/09 10:36:19;;;;;;;2.80;2.20;;;17.60;52.50;;;;;;5019919;28;20286;-63
2023/05/09 10:38:47;;;;;;;5.10;2.87;;;17.80;52.50;;;;;;5017546;28;20289;-64
2023/05/09 10:41:14;;;;;;;4.03;2.37;;;17.70;51.10;;;;;;5019523;28;20358;-62
2023/05/09 10:43:41;;;;;;;2.87;2.60;;;17.70;51.00;;;;;;5020966;28;20734;-62
2023/05/09 10:46:08;;;;;;;3.70;2.90;;;17.80;50.90;;;;;;5020931;28;20206;-65
2023/05/09 10:48:35;;;;;;;3.57;2.50;;;17.80;52.10;;;;;;5018493;28;20224;-63
2023/05/09 10:51:02;;;;;;;4.53;2.50;;;17.90;52.20;;;;;;5020929;28;20847;-65
2023/05/09 10:54:11;;;;;;;3.27;2.73;;;18.10;53.90;;;;;;5019744;28;20293;-62
2023/05/09 10:56:38;;;;;;;2.70;2.50;;;18.50;51.10;;;;;;4979232;28;20292;-64
2023/05/09 10:59:07;;;;;;;3.13;2.30;;;18.70;51.30;;;;;;5013529;28;20282;-66
2023/05/09 11:01:38;;;;;;;2.63;2.43;;;18.60;51.10;;;;;;5019385;28;20239;-63
2023/05/09 11:04:10;;;;;;;6.50;3.00;;;18.80;51.70;;;;;;5018454;28;20231;-63
2023/05/09 11:06:51;;;;;;;3.17;2.10;;;19.00;50.70;;;;;;5021879;28;20772;-66
2023/05/09 11:09:27;;;;;;;2.77;2.20;;;18.90;50.10;;;;;;5022541;28;20207;-65
2023/05/09 11:11:57;;;;;;;5.40;2.77;;;18.90;50.20;;;;;;5025875;28;20204;-64
2023/05/09 11:14:32;;;;;;;3.37;2.40;;;19.20;50.30;;;;;;5028423;28;20666;-66
2023/05/09 11:17:00;;;;;;;2.67;2.43;;;19.50;49.60;;;;;;5028718;28;20313;-66
2023/05/09 11:19:35;;;;;;;4.40;2.60;;;19.50;48.30;;;;;;5026973;28;20194;-66
2023/05/09 11:22:03;;;;;;;3.67;2.97;;;19.60;48.80;;;;;;5028880;28;20211;-65
2023/05/09 11:24:31;;;;;;;6.60;3.83;;;19.80;48.60;;;;;;5028399;28;20263;-64
2023/05/09 11:26:57;;;;;;;8.23;2.73;;;19.50;47.90;;;;;;5026705;28;20259;-65
2023/05/09 11:29:26;;;;;;;5.73;2.63;;;19.60;49.40;;;;;;5027891;28;20228;-64
2023/05/09 11:32:04;;;;;;;4.30;2.73;;;19.60;48.10;;;;;;5027663;28;20212;-64
2023/05/09 11:34:30;;;;;;;3.20;2.30;;;19.90;48.40;;;;;;5026464;28;20209;-65
2023/05/09 11:37:08;;;;;;;3.57;2.50;;;20.20;47.80;;;;;;5029097;28;20271;-63
2023/05/09 11:39:35;;;;;;;2.50;2.30;;;20.30;46.60;;;;;;5028828;28;20566;-64
2023/05/09 11:42:02;;;;;;;6.87;2.83;;;20.60;46.40;;;;;;5025874;28;20202;-63
2023/05/09 11:44:32;;;;;;;3.60;2.70;;;20.70;47.40;;;;;;5028563;28;20605;-63
2023/05/09 11:46:57;;;;;;;3.27;2.50;;;20.80;46.20;;;;;;5028546;28;20297;-63
2023/05/09 11:49:23;;;;;;;3.07;2.77;;;21.10;46.60;;;;;;5031206;28;20293;-64
2023/05/09 11:51:49;;;;;;;6.67;2.13;;;20.90;45.70;;;;;;5023267;28;20673;-64
2023/05/09 11:54:14;;;;;;;3.30;2.83;;;21.00;46.00;;;;;;5028753;28;20748;-65
2023/05/09 11:56:40;;;;;;;3.60;2.10;;;21.00;45.50;;;;;;5028238;28;20309;-62
2023/05/09 11:59:06;;;;;;;4.73;2.27;;;21.30;45.90;;;;;;5028161;28;20232;-64
2023/05/09 12:01:32;;;;;;;3.80;2.30;;;21.60;45.20;;;;;;5028124;28;20738;-65
2023/05/09 12:03:58;;;;;;;6.10;2.40;;;21.60;44.90;;;;;;5025714;28;20829;-64
2023/05/09 12:06:25;;;;;;;2.80;2.20;;;21.30;44.40;;;;;;5025801;28;20225;-64
2023/05/09 12:08:51;;;;;;;4.13;2.53;;;21.10;45.00;;;;;;5027314;28;20203;-63
2023/05/09 12:11:17;;;;;;;3.80;2.57;;;21.80;44.10;;;;;;5026917;28;20283;-64
2023/05/09 12:13:45;;;;;;;4.73;2.37;;;22.00;42.90;;;;;;5027205;28;20207;-64
2023/05/09 12:16:11;;;;;;;3.40;2.13;;;21.60;44.00;;;;;;5020692;28;20717;-64
2023/05/09 12:18:36;;;;;;;2.40;2.20;;;22.40;42.20;;;;;;5017614;28;20195;-64
2023/05/09 12:21:03;;;;;;;3.93;2.33;;;22.50;40.50;;;;;;5017251;28;20302;-67
2023/05/09 12:23:33;;;;;;;6.57;2.60;;;22.40;41.30;;;;;;5016692;28;20223;-66
2023/05/09 12:25:59;;;;;;;15.00;3.27;;;22.70;41.30;;;;;;5015666;28;20298;-68
2023/05/09 12:28:25;;;;;;;3.10;2.47;;;22.40;42.30;;;;;;5018247;28;20433;-67
2023/05/09 12:30:52;;;;;;;4.77;2.70;;;22.30;40.90;;;;;;5025996;28;20199;-64
2023/05/09 12:33:18;;;;;;;2.45;2.25;;;22.20;41.80;;;;;;5036967;28;20211;-65
2023/05/09 12:35:59;;;;;;;11.10;2.77;;;22.40;43.50;;;;;;5025881;28;20537;-66
2023/05/09 12:38:24;;;;;;;3.67;2.40;;;21.90;40.80;;;;;;5028432;28;20206;-67
2023/05/09 12:41:02;;;;;;;5.65;2.70;;;22.00;40.90;;;;;;5036413;28;20209;-65
2023/05/09 12:43:36;;;;;;;4.60;2.17;;;22.00;42.70;;;;;;5036417;28;20218;-65
2023/05/09 12:46:03;;;;;;;3.10;2.65;;;22.60;41.40;;;;;;5035167;28;20268;-65
2023/05/09 12:48:34;;;;;;;9.18;2.55;;;22.80;42.30;;;;;;5037148;28;20186;-65